Terminal Aerodrome Forecast
Issued by NWS

Home | Current Version | Previous Version | Text Only | Print | Product List | Glossary On
Versions: 1 2 3 4 5 6 7 8 9 10 11 12 13 14 15 16 17 18 19 20 21 22 23 24 25 26 27 28 29
000
FTUS41 KBUF 020858 AAA
TAFIAG
TAF AMD
KIAG 020858Z 0209/0306 35005KT P6SM SCT025
     FM021000 VRB03KT 3SM BR BKN025
     FM021300 VRB03KT P6SM BKN040
     FM021700 34007KT P6SM SCT040
     FM022300 VRB03KT P6SM SKC=

USA.gov is the U.S. government's official web portal to all federal, state and local government web resources and services.